Droop, West Virginia
Current Conditions -  °F | °C
As of 12:10 PM on Friday 24 Oct 2014 (Local Time) from KLWB Reporting Station
Clear Clear  
Wind Chill: 54°   Ceiling: Unl
Heat Index: 54°   Visibility: 10mi
Dew Point: 42°   Wind: 0mph
Humidity: 63%   Direction: NA
Pressure: 30.09"   Gusts: NA
Location:  38.1931°N, 80.2861°W
Report Text: KLWB 241610Z AUTO 00000KT 10SM CLR 12/06 A3009 RMK AO2 T01240056
Loading
Personal Weather Stations






























Interactive Weather Map
Tropical Storm Tracking
New forecast layout! Learn more

10-Day Weather Forecast

Advertisements
Track Severe Weather on mobile